Terminal Aerodrome Forecast
Issued by NWS Binghamton, NY

Home | Current Version | Previous Version | Text Only | Print | Product List | Glossary On
Versions: 1 2 3 4 5 6 7 8 9 10 11 12 13 14 15 16 17 18 19 20 21 22 23 24 25 26 27 28 29 30 31 32 33 34 35 36 37 38 39 40 41 42
000
FTUS41 KBGM 170341 AAD
TAFBGM
TAF AMD
KBGM 170341Z 1704/1724 34006KT P6SM SCT003 BKN010
      TEMPO 1704/1707 1/4SM -DZ FG VV002
     FM170700 VRB03KT 4SM BR OVC010
     FM171100 VRB03KT 1SM BR OVC002
     FM171400 VRB03KT P6SM BKN035
     FM171600 VRB04KT P6SM SCT035 BKN250=

USA.gov is the U.S. government's official web portal to all federal, state and local government web resources and services.